sensor_id;sensor_type;location;lat;lon;timestamp;P1;durP1;ratioP1;P2;durP2;ratioP2
54627;SDS011;40525;55.926;21.066;2024-02-16T00:00:11;23.60;;;10.90;;
54627;SDS011;40525;55.926;21.066;2024-02-16T00:02:39;29.10;;;12.40;;
54627;SDS011;40525;55.926;21.066;2024-02-16T00:05:11;27.60;;;12.90;;
54627;SDS011;40525;55.926;21.066;2024-02-16T00:07:39;31.90;;;12.50;;
54627;SDS011;40525;55.926;21.066;2024-02-16T00:10:06;24.80;;;11.40;;
54627;SDS011;40525;55.926;21.066;2024-02-16T00:12:35;26.00;;;11.60;;
54627;SDS011;40525;55.926;21.066;2024-02-16T00:15:03;23.00;;;11.10;;
54627;SDS011;40525;55.926;21.066;2024-02-16T00:17:30;26.00;;;12.00;;
54627;SDS011;40525;55.926;21.066;2024-02-16T00:19:58;26.10;;;12.20;;
54627;SDS011;40525;55.926;21.066;2024-02-16T00:22:25;23.60;;;11.00;;
54627;SDS011;40525;55.926;21.066;2024-02-16T00:24:53;25.50;;;11.70;;
54627;SDS011;40525;55.926;21.066;2024-02-16T00:27:20;25.90;;;11.50;;
54627;SDS011;40525;55.926;21.066;2024-02-16T00:29:47;19.70;;;9.20;;
54627;SDS011;40525;55.926;21.066;2024-02-16T00:32:14;23.30;;;11.00;;
54627;SDS011;40525;55.926;21.066;2024-02-16T00:34:44;23.90;;;10.30;;
54627;SDS011;40525;55.926;21.066;2024-02-16T00:37:11;21.00;;;10.10;;
54627;SDS011;40525;55.926;21.066;2024-02-16T00:39:38;23.60;;;10.60;;
54627;SDS011;40525;55.926;21.066;2024-02-16T00:42:09;23.20;;;10.10;;
54627;SDS011;40525;55.926;21.066;2024-02-16T00:44:36;20.30;;;9.50;;
54627;SDS011;40525;55.926;21.066;2024-02-16T00:47:03;20.30;;;9.60;;
54627;SDS011;40525;55.926;21.066;2024-02-16T00:49:32;21.10;;;9.70;;
54627;SDS011;40525;55.926;21.066;2024-02-16T00:52:00;26.30;;;10.60;;
54627;SDS011;40525;55.926;21.066;2024-02-16T00:54:28;23.20;;;10.10;;
54627;SDS011;40525;55.926;21.066;2024-02-16T00:56:56;21.60;;;10.10;;
54627;SDS011;40525;55.926;21.066;2024-02-16T00:59:29;24.50;;;11.00;;
54627;SDS011;40525;55.926;21.066;2024-02-16T01:01:56;21.30;;;10.70;;
54627;SDS011;40525;55.926;21.066;2024-02-16T01:04:24;30.10;;;12.30;;
54627;SDS011;40525;55.926;21.066;2024-02-16T01:06:51;28.00;;;11.80;;
54627;SDS011;40525;55.926;21.066;2024-02-16T01:09:18;33.40;;;14.00;;
54627;SDS011;40525;55.926;21.066;2024-02-16T01:11:45;31.40;;;13.60;;
54627;SDS011;40525;55.926;21.066;2024-02-16T01:14:12;29.40;;;12.60;;
54627;SDS011;40525;55.926;21.066;2024-02-16T01:16:40;33.00;;;13.60;;
54627;SDS011;40525;55.926;21.066;2024-02-16T01:19:07;36.60;;;14.00;;
54627;SDS011;40525;55.926;21.066;2024-02-16T01:21:34;34.30;;;14.10;;
54627;SDS011;40525;55.926;21.066;2024-02-16T01:24:01;34.80;;;14.50;;
54627;SDS011;40525;55.926;21.066;2024-02-16T01:26:28;30.40;;;13.60;;
54627;SDS011;40525;55.926;21.066;2024-02-16T01:28:56;36.20;;;14.60;;
54627;SDS011;40525;55.926;21.066;2024-02-16T01:31:24;32.20;;;13.30;;
54627;SDS011;40525;55.926;21.066;2024-02-16T01:33:51;34.60;;;14.30;;
54627;SDS011;40525;55.926;21.066;2024-02-16T01:36:19;31.80;;;13.80;;
54627;SDS011;40525;55.926;21.066;2024-02-16T01:38:47;32.10;;;13.40;;
54627;SDS011;40525;55.926;21.066;2024-02-16T01:41:14;33.10;;;14.50;;
54627;SDS011;40525;55.926;21.066;2024-02-16T01:43:41;32.60;;;14.00;;
54627;SDS011;40525;55.926;21.066;2024-02-16T01:46:08;31.30;;;12.80;;
54627;SDS011;40525;55.926;21.066;2024-02-16T01:48:36;32.60;;;14.30;;
54627;SDS011;40525;55.926;21.066;2024-02-16T01:51:06;34.30;;;13.20;;
54627;SDS011;40525;55.926;21.066;2024-02-16T01:53:35;34.70;;;15.20;;
54627;SDS011;40525;55.926;21.066;2024-02-16T01:56:03;33.40;;;14.90;;
54627;SDS011;40525;55.926;21.066;2024-02-16T01:58:31;32.00;;;14.30;;
54627;SDS011;40525;55.926;21.066;2024-02-16T02:00:58;30.40;;;13.20;;
54627;SDS011;40525;55.926;21.066;2024-02-16T02:03:26;34.40;;;15.20;;
54627;SDS011;40525;55.926;21.066;2024-02-16T02:05:53;40.00;;;16.60;;
54627;SDS011;40525;55.926;21.066;2024-02-16T02:08:23;37.00;;;15.80;;
54627;SDS011;40525;55.926;21.066;2024-02-16T02:10:52;39.30;;;15.70;;
54627;SDS011;40525;55.926;21.066;2024-02-16T02:13:20;39.70;;;16.10;;
54627;SDS011;40525;55.926;21.066;2024-02-16T02:15:49;33.90;;;15.50;;
54627;SDS011;40525;55.926;21.066;2024-02-16T02:18:16;43.10;;;17.50;;
54627;SDS011;40525;55.926;21.066;2024-02-16T02:20:43;39.60;;;15.80;;
54627;SDS011;40525;55.926;21.066;2024-02-16T02:23:11;36.90;;;16.30;;
54627;SDS011;40525;55.926;21.066;2024-02-16T02:25:37;40.20;;;16.60;;
54627;SDS011;40525;55.926;21.066;2024-02-16T02:28:06;39.60;;;17.50;;
54627;SDS011;40525;55.926;21.066;2024-02-16T02:30:35;43.30;;;17.30;;
54627;SDS011;40525;55.926;21.066;2024-02-16T02:33:02;43.40;;;18.10;;
54627;SDS011;40525;55.926;21.066;2024-02-16T02:35:29;40.20;;;17.40;;
54627;SDS011;40525;55.926;21.066;2024-02-16T02:37:56;44.00;;;17.90;;
54627;SDS011;40525;55.926;21.066;2024-02-16T02:40:23;42.00;;;17.30;;
54627;SDS011;40525;55.926;21.066;2024-02-16T02:42:52;43.10;;;17.40;;
54627;SDS011;40525;55.926;21.066;2024-02-16T02:45:20;45.60;;;18.40;;
54627;SDS011;40525;55.926;21.066;2024-02-16T02:47:47;43.00;;;17.80;;
54627;SDS011;40525;55.926;21.066;2024-02-16T02:50:14;44.10;;;18.70;;
54627;SDS011;40525;55.926;21.066;2024-02-16T02:52:42;48.50;;;18.80;;
54627;SDS011;40525;55.926;21.066;2024-02-16T02:55:11;45.50;;;19.60;;
54627;SDS011;40525;55.926;21.066;2024-02-16T02:57:38;44.60;;;18.20;;
54627;SDS011;40525;55.926;21.066;2024-02-16T03:00:06;42.10;;;17.90;;
54627;SDS011;40525;55.926;21.066;2024-02-16T03:02:39;46.50;;;18.80;;
54627;SDS011;40525;55.926;21.066;2024-02-16T03:05:08;47.40;;;19.90;;
54627;SDS011;40525;55.926;21.066;2024-02-16T03:07:35;39.30;;;17.50;;
54627;SDS011;40525;55.926;21.066;2024-02-16T03:10:03;44.00;;;19.00;;
54627;SDS011;40525;55.926;21.066;2024-02-16T03:12:31;46.70;;;20.40;;
54627;SDS011;40525;55.926;21.066;2024-02-16T03:14:59;42.60;;;19.70;;
54627;SDS011;40525;55.926;21.066;2024-02-16T03:17:27;45.50;;;19.50;;
54627;SDS011;40525;55.926;21.066;2024-02-16T03:19:54;42.50;;;19.10;;
54627;SDS011;40525;55.926;21.066;2024-02-16T03:22:22;44.40;;;19.10;;
54627;SDS011;40525;55.926;21.066;2024-02-16T03:24:49;39.80;;;19.30;;
54627;SDS011;40525;55.926;21.066;2024-02-16T03:27:16;34.40;;;16.00;;
54627;SDS011;40525;55.926;21.066;2024-02-16T03:29:43;45.00;;;19.70;;
54627;SDS011;40525;55.926;21.066;2024-02-16T03:32:10;38.30;;;18.20;;
54627;SDS011;40525;55.926;21.066;2024-02-16T03:34:37;40.70;;;19.30;;
54627;SDS011;40525;55.926;21.066;2024-02-16T03:37:05;42.10;;;19.50;;
54627;SDS011;40525;55.926;21.066;2024-02-16T03:39:32;39.10;;;18.40;;
54627;SDS011;40525;55.926;21.066;2024-02-16T03:41:59;35.40;;;17.10;;
54627;SDS011;40525;55.926;21.066;2024-02-16T03:44:26;38.20;;;17.00;;
54627;SDS011;40525;55.926;21.066;2024-02-16T03:46:53;40.40;;;16.60;;
54627;SDS011;40525;55.926;21.066;2024-02-16T03:49:22;35.50;;;16.60;;
54627;SDS011;40525;55.926;21.066;2024-02-16T03:51:50;36.50;;;17.60;;
54627;SDS011;40525;55.926;21.066;2024-02-16T03:54:17;33.70;;;17.20;;
54627;SDS011;40525;55.926;21.066;2024-02-16T03:56:44;35.60;;;16.70;;
54627;SDS011;40525;55.926;21.066;2024-02-16T03:59:12;30.90;;;14.90;;
54627;SDS011;40525;55.926;21.066;2024-02-16T04:01:41;31.00;;;16.20;;
54627;SDS011;40525;55.926;21.066;2024-02-16T04:04:08;31.80;;;15.90;;
54627;SDS011;40525;55.926;21.066;2024-02-16T04:06:36;32.20;;;14.90;;
54627;SDS011;40525;55.926;21.066;2024-02-16T04:09:03;29.20;;;14.50;;
54627;SDS011;40525;55.926;21.066;2024-02-16T04:11:32;27.70;;;14.30;;
54627;SDS011;40525;55.926;21.066;2024-02-16T04:14:00;25.10;;;12.30;;
54627;SDS011;40525;55.926;21.066;2024-02-16T04:16:27;26.90;;;14.40;;
54627;SDS011;40525;55.926;21.066;2024-02-16T04:18:55;24.50;;;13.00;;
54627;SDS011;40525;55.926;21.066;2024-02-16T04:21:22;24.40;;;12.70;;
54627;SDS011;40525;55.926;21.066;2024-02-16T04:23:49;16.30;;;9.40;;
54627;SDS011;40525;55.926;21.066;2024-02-16T04:26:16;23.90;;;12.80;;
54627;SDS011;40525;55.926;21.066;2024-02-16T04:28:43;21.40;;;12.50;;
54627;SDS011;40525;55.926;21.066;2024-02-16T04:31:10;21.80;;;11.10;;
54627;SDS011;40525;55.926;21.066;2024-02-16T04:33:38;28.10;;;14.00;;
54627;SDS011;40525;55.926;21.066;2024-02-16T04:36:06;24.60;;;12.60;;
54627;SDS011;40525;55.926;21.066;2024-02-16T04:38:34;29.80;;;13.70;;
54627;SDS011;40525;55.926;21.066;2024-02-16T04:41:01;32.00;;;15.50;;
54627;SDS011;40525;55.926;21.066;2024-02-16T04:43:28;34.10;;;15.20;;
54627;SDS011;40525;55.926;21.066;2024-02-16T04:45:55;28.80;;;13.80;;
54627;SDS011;40525;55.926;21.066;2024-02-16T04:48:22;39.30;;;17.80;;
54627;SDS011;40525;55.926;21.066;2024-02-16T04:50:49;44.50;;;18.90;;
54627;SDS011;40525;55.926;21.066;2024-02-16T04:53:16;45.00;;;19.60;;
54627;SDS011;40525;55.926;21.066;2024-02-16T04:55:43;36.20;;;15.40;;
54627;SDS011;40525;55.926;21.066;2024-02-16T04:58:10;51.80;;;21.30;;
54627;SDS011;40525;55.926;21.066;2024-02-16T05:00:37;49.50;;;22.20;;
54627;SDS011;40525;55.926;21.066;2024-02-16T05:03:05;56.90;;;22.10;;
54627;SDS011;40525;55.926;21.066;2024-02-16T05:05:33;55.40;;;20.60;;
54627;SDS011;40525;55.926;21.066;2024-02-16T05:08:00;46.90;;;20.90;;
54627;SDS011;40525;55.926;21.066;2024-02-16T05:10:27;49.00;;;19.90;;
54627;SDS011;40525;55.926;21.066;2024-02-16T05:12:55;47.60;;;21.40;;
54627;SDS011;40525;55.926;21.066;2024-02-16T05:15:24;42.30;;;17.20;;
54627;SDS011;40525;55.926;21.066;2024-02-16T05:17:52;55.90;;;21.80;;
54627;SDS011;40525;55.926;21.066;2024-02-16T05:20:20;55.10;;;22.30;;
54627;SDS011;40525;55.926;21.066;2024-02-16T05:22:47;56.10;;;22.50;;
54627;SDS011;40525;55.926;21.066;2024-02-16T05:25:17;56.80;;;22.00;;
54627;SDS011;40525;55.926;21.066;2024-02-16T05:27:45;52.50;;;21.50;;
54627;SDS011;40525;55.926;21.066;2024-02-16T05:30:14;55.00;;;22.80;;
54627;SDS011;40525;55.926;21.066;2024-02-16T05:32:42;49.50;;;21.00;;
54627;SDS011;40525;55.926;21.066;2024-02-16T05:35:09;44.60;;;19.30;;
54627;SDS011;40525;55.926;21.066;2024-02-16T05:37:42;50.70;;;22.10;;
54627;SDS011;40525;55.926;21.066;2024-02-16T05:40:11;56.50;;;22.30;;
54627;SDS011;40525;55.926;21.066;2024-02-16T05:42:56;45.90;;;19.40;;
54627;SDS011;40525;55.926;21.066;2024-02-16T05:45:25;44.80;;;20.50;;
54627;SDS011;40525;55.926;21.066;2024-02-16T05:47:54;48.20;;;20.70;;
54627;SDS011;40525;55.926;21.066;2024-02-16T05:50:22;38.00;;;19.80;;
54627;SDS011;40525;55.926;21.066;2024-02-16T05:52:50;42.30;;;20.00;;
54627;SDS011;40525;55.926;21.066;2024-02-16T05:55:18;41.30;;;20.00;;
54627;SDS011;40525;55.926;21.066;2024-02-16T05:57:48;42.90;;;19.90;;
54627;SDS011;40525;55.926;21.066;2024-02-16T06:00:15;43.50;;;20.20;;
54627;SDS011;40525;55.926;21.066;2024-02-16T06:02:48;44.00;;;20.50;;
54627;SDS011;40525;55.926;21.066;2024-02-16T06:05:16;45.20;;;19.90;;
54627;SDS011;40525;55.926;21.066;2024-02-16T06:07:43;40.40;;;19.20;;
54627;SDS011;40525;55.926;21.066;2024-02-16T06:10:10;44.50;;;19.50;;
54627;SDS011;40525;55.926;21.066;2024-02-16T06:12:38;38.60;;;19.00;;
54627;SDS011;40525;55.926;21.066;2024-02-16T06:15:06;45.20;;;19.80;;
54627;SDS011;40525;55.926;21.066;2024-02-16T06:17:34;41.70;;;19.80;;
54627;SDS011;40525;55.926;21.066;2024-02-16T06:20:03;40.90;;;18.60;;
54627;SDS011;40525;55.926;21.066;2024-02-16T06:22:32;42.20;;;20.50;;
54627;SDS011;40525;55.926;21.066;2024-02-16T06:24:59;34.50;;;18.20;;
54627;SDS011;40525;55.926;21.066;2024-02-16T06:27:26;32.00;;;16.80;;
54627;SDS011;40525;55.926;21.066;2024-02-16T06:29:53;40.70;;;19.00;;
54627;SDS011;40525;55.926;21.066;2024-02-16T06:32:20;39.40;;;18.40;;
54627;SDS011;40525;55.926;21.066;2024-02-16T06:34:47;39.80;;;19.30;;
54627;SDS011;40525;55.926;21.066;2024-02-16T06:37:14;38.20;;;19.00;;
54627;SDS011;40525;55.926;21.066;2024-02-16T06:39:41;35.20;;;16.60;;
54627;SDS011;40525;55.926;21.066;2024-02-16T06:42:09;38.50;;;18.20;;
54627;SDS011;40525;55.926;21.066;2024-02-16T06:44:40;35.70;;;17.00;;
54627;SDS011;40525;55.926;21.066;2024-02-16T06:47:07;37.10;;;16.40;;
54627;SDS011;40525;55.926;21.066;2024-02-16T06:49:34;43.90;;;19.50;;
54627;SDS011;40525;55.926;21.066;2024-02-16T06:52:01;38.40;;;18.30;;
54627;SDS011;40525;55.926;21.066;2024-02-16T06:54:28;40.10;;;19.20;;
54627;SDS011;40525;55.926;21.066;2024-02-16T06:56:55;38.80;;;17.80;;
54627;SDS011;40525;55.926;21.066;2024-02-16T06:59:22;35.90;;;19.70;;
54627;SDS011;40525;55.926;21.066;2024-02-16T07:01:49;39.70;;;18.80;;
54627;SDS011;40525;55.926;21.066;2024-02-16T07:04:16;39.40;;;18.70;;
54627;SDS011;40525;55.926;21.066;2024-02-16T07:06:44;34.50;;;18.20;;
54627;SDS011;40525;55.926;21.066;2024-02-16T07:09:11;42.90;;;18.20;;
54627;SDS011;40525;55.926;21.066;2024-02-16T07:11:42;39.90;;;19.20;;
54627;SDS011;40525;55.926;21.066;2024-02-16T07:14:17;33.20;;;15.60;;
54627;SDS011;40525;55.926;21.066;2024-02-16T07:16:44;38.80;;;17.20;;
54627;SDS011;40525;55.926;21.066;2024-02-16T07:19:11;31.40;;;15.60;;
54627;SDS011;40525;55.926;21.066;2024-02-16T07:21:39;39.00;;;18.00;;
54627;SDS011;40525;55.926;21.066;2024-02-16T07:24:07;46.50;;;19.70;;
54627;SDS011;40525;55.926;21.066;2024-02-16T07:26:36;40.00;;;18.40;;
54627;SDS011;40525;55.926;21.066;2024-02-16T07:29:03;40.80;;;18.30;;
54627;SDS011;40525;55.926;21.066;2024-02-16T07:31:36;38.80;;;18.40;;
54627;SDS011;40525;55.926;21.066;2024-02-16T07:34:03;39.20;;;18.30;;
54627;SDS011;40525;55.926;21.066;2024-02-16T07:36:30;39.50;;;18.90;;
54627;SDS011;40525;55.926;21.066;2024-02-16T07:38:58;42.10;;;18.70;;
54627;SDS011;40525;55.926;21.066;2024-02-16T07:41:26;41.50;;;19.40;;
54627;SDS011;40525;55.926;21.066;2024-02-16T07:43:54;37.30;;;18.00;;
54627;SDS011;40525;55.926;21.066;2024-02-16T07:46:21;42.10;;;19.70;;
54627;SDS011;40525;55.926;21.066;2024-02-16T07:48:49;36.80;;;18.00;;
54627;SDS011;40525;55.926;21.066;2024-02-16T07:51:17;37.20;;;18.50;;
54627;SDS011;40525;55.926;21.066;2024-02-16T07:53:44;33.40;;;17.80;;
54627;SDS011;40525;55.926;21.066;2024-02-16T07:56:13;42.70;;;20.10;;
54627;SDS011;40525;55.926;21.066;2024-02-16T07:58:41;38.10;;;18.80;;
54627;SDS011;40525;55.926;21.066;2024-02-16T08:01:11;32.00;;;17.10;;
54627;SDS011;40525;55.926;21.066;2024-02-16T08:03:42;39.70;;;18.30;;
54627;SDS011;40525;55.926;21.066;2024-02-16T08:06:09;36.80;;;18.70;;
54627;SDS011;40525;55.926;21.066;2024-02-16T08:08:37;36.80;;;19.30;;
54627;SDS011;40525;55.926;21.066;2024-02-16T08:11:04;36.50;;;18.30;;
54627;SDS011;40525;55.926;21.066;2024-02-16T08:13:31;34.30;;;17.90;;
54627;SDS011;40525;55.926;21.066;2024-02-16T08:15:58;25.00;;;12.70;;
54627;SDS011;40525;55.926;21.066;2024-02-16T08:18:25;30.90;;;17.00;;
54627;SDS011;40525;55.926;21.066;2024-02-16T08:20:52;32.40;;;16.90;;
54627;SDS011;40525;55.926;21.066;2024-02-16T08:23:19;31.20;;;16.90;;
54627;SDS011;40525;55.926;21.066;2024-02-16T08:25:47;27.00;;;14.20;;
54627;SDS011;40525;55.926;21.066;2024-02-16T08:28:14;33.60;;;17.10;;
54627;SDS011;40525;55.926;21.066;2024-02-16T08:30:41;32.80;;;16.40;;
54627;SDS011;40525;55.926;21.066;2024-02-16T08:33:11;32.70;;;16.90;;
54627;SDS011;40525;55.926;21.066;2024-02-16T08:35:39;26.00;;;15.00;;
54627;SDS011;40525;55.926;21.066;2024-02-16T08:38:06;31.10;;;16.80;;
54627;SDS011;40525;55.926;21.066;2024-02-16T08:40:38;23.60;;;13.00;;
54627;SDS011;40525;55.926;21.066;2024-02-16T08:43:05;29.40;;;16.80;;
54627;SDS011;40525;55.926;21.066;2024-02-16T08:45:34;29.80;;;18.10;;
54627;SDS011;40525;55.926;21.066;2024-02-16T08:48:01;31.20;;;16.00;;
54627;SDS011;40525;55.926;21.066;2024-02-16T08:50:31;32.30;;;16.40;;
54627;SDS011;40525;55.926;21.066;2024-02-16T08:52:58;25.00;;;12.30;;
54627;SDS011;40525;55.926;21.066;2024-02-16T08:55:25;32.20;;;17.50;;
54627;SDS011;40525;55.926;21.066;2024-02-16T08:57:52;33.70;;;18.20;;
54627;SDS011;40525;55.926;21.066;2024-02-16T09:00:19;34.40;;;17.20;;
54627;SDS011;40525;55.926;21.066;2024-02-16T09:02:47;34.90;;;17.50;;
54627;SDS011;40525;55.926;21.066;2024-02-16T09:05:14;30.90;;;16.50;;
54627;SDS011;40525;55.926;21.066;2024-02-16T09:07:41;26.60;;;14.80;;
54627;SDS011;40525;55.926;21.066;2024-02-16T09:10:09;27.00;;;13.90;;
54627;SDS011;40525;55.926;21.066;2024-02-16T09:12:35;29.40;;;15.30;;
54627;SDS011;40525;55.926;21.066;2024-02-16T09:15:03;32.40;;;17.20;;
54627;SDS011;40525;55.926;21.066;2024-02-16T09:17:32;32.60;;;17.00;;
54627;SDS011;40525;55.926;21.066;2024-02-16T09:19:59;28.70;;;14.80;;
54627;SDS011;40525;55.926;21.066;2024-02-16T09:22:26;27.10;;;15.20;;
54627;SDS011;40525;55.926;21.066;2024-02-16T09:24:56;30.20;;;17.30;;
54627;SDS011;40525;55.926;21.066;2024-02-16T09:27:26;25.80;;;13.10;;
54627;SDS011;40525;55.926;21.066;2024-02-16T09:29:54;27.20;;;13.80;;
54627;SDS011;40525;55.926;21.066;2024-02-16T09:32:21;29.50;;;14.40;;
54627;SDS011;40525;55.926;21.066;2024-02-16T09:34:49;28.70;;;15.70;;
54627;SDS011;40525;55.926;21.066;2024-02-16T09:37:18;30.20;;;16.20;;
54627;SDS011;40525;55.926;21.066;2024-02-16T09:39:45;27.90;;;15.50;;
54627;SDS011;40525;55.926;21.066;2024-02-16T09:42:12;23.80;;;12.60;;
54627;SDS011;40525;55.926;21.066;2024-02-16T09:44:41;24.00;;;14.20;;
54627;SDS011;40525;55.926;21.066;2024-02-16T09:47:09;24.20;;;12.70;;
54627;SDS011;40525;55.926;21.066;2024-02-16T09:49:39;27.00;;;14.70;;
54627;SDS011;40525;55.926;21.066;2024-02-16T09:52:09;27.30;;;14.70;;
54627;SDS011;40525;55.926;21.066;2024-02-16T09:54:39;27.50;;;16.20;;
54627;SDS011;40525;55.926;21.066;2024-02-16T09:57:06;29.40;;;15.20;;
54627;SDS011;40525;55.926;21.066;2024-02-16T09:59:33;25.60;;;14.80;;
54627;SDS011;40525;55.926;21.066;2024-02-16T10:02:01;27.80;;;14.50;;
54627;SDS011;40525;55.926;21.066;2024-02-16T10:04:29;29.20;;;16.10;;
54627;SDS011;40525;55.926;21.066;2024-02-16T10:07:02;25.00;;;15.20;;
54627;SDS011;40525;55.926;21.066;2024-02-16T10:09:37;24.80;;;14.10;;
54627;SDS011;40525;55.926;21.066;2024-02-16T10:12:06;24.80;;;14.50;;
54627;SDS011;40525;55.926;21.066;2024-02-16T10:14:34;24.30;;;14.30;;
54627;SDS011;40525;55.926;21.066;2024-02-16T10:17:01;24.70;;;13.20;;
54627;SDS011;40525;55.926;21.066;2024-02-16T10:19:31;26.80;;;14.90;;
54627;SDS011;40525;55.926;21.066;2024-02-16T10:22:11;23.40;;;13.90;;
54627;SDS011;40525;55.926;21.066;2024-02-16T10:24:40;23.00;;;12.70;;
54627;SDS011;40525;55.926;21.066;2024-02-16T10:27:16;24.90;;;14.10;;
54627;SDS011;40525;55.926;21.066;2024-02-16T10:29:44;21.60;;;12.50;;
54627;SDS011;40525;55.926;21.066;2024-02-16T10:32:16;22.80;;;13.20;;
54627;SDS011;40525;55.926;21.066;2024-02-16T10:34:45;23.00;;;13.10;;
54627;SDS011;40525;55.926;21.066;2024-02-16T10:37:14;22.00;;;11.50;;
54627;SDS011;40525;55.926;21.066;2024-02-16T10:39:43;23.10;;;14.10;;
54627;SDS011;40525;55.926;21.066;2024-02-16T10:42:11;23.70;;;13.80;;
54627;SDS011;40525;55.926;21.066;2024-02-16T10:44:41;23.40;;;13.10;;
54627;SDS011;40525;55.926;21.066;2024-02-16T10:47:10;22.10;;;11.90;;
54627;SDS011;40525;55.926;21.066;2024-02-16T10:49:37;23.90;;;12.00;;
54627;SDS011;40525;55.926;21.066;2024-02-16T10:52:05;20.60;;;12.10;;
54627;SDS011;40525;55.926;21.066;2024-02-16T10:54:33;22.80;;;13.20;;
54627;SDS011;40525;55.926;21.066;2024-02-16T10:57:01;23.20;;;13.10;;
54627;SDS011;40525;55.926;21.066;2024-02-16T10:59:37;21.90;;;12.90;;
54627;SDS011;40525;55.926;21.066;2024-02-16T11:02:09;20.00;;;11.60;;
54627;SDS011;40525;55.926;21.066;2024-02-16T11:04:37;20.80;;;11.90;;
54627;SDS011;40525;55.926;21.066;2024-02-16T11:07:26;21.70;;;11.80;;
54627;SDS011;40525;55.926;21.066;2024-02-16T11:09:53;26.60;;;12.80;;
54627;SDS011;40525;55.926;21.066;2024-02-16T11:12:20;19.70;;;12.10;;
54627;SDS011;40525;55.926;21.066;2024-02-16T11:14:50;19.40;;;11.00;;
54627;SDS011;40525;55.926;21.066;2024-02-16T11:17:22;21.00;;;11.60;;
54627;SDS011;40525;55.926;21.066;2024-02-16T11:19:50;24.00;;;11.70;;
54627;SDS011;40525;55.926;21.066;2024-02-16T11:22:26;18.70;;;11.30;;
54627;SDS011;40525;55.926;21.066;2024-02-16T11:24:55;18.70;;;10.80;;
54627;SDS011;40525;55.926;21.066;2024-02-16T11:27:28;20.00;;;10.80;;
54627;SDS011;40525;55.926;21.066;2024-02-16T11:29:58;21.30;;;11.30;;
54627;SDS011;40525;55.926;21.066;2024-02-16T11:32:27;19.90;;;10.80;;
54627;SDS011;40525;55.926;21.066;2024-02-16T11:34:54;19.80;;;10.50;;
54627;SDS011;40525;55.926;21.066;2024-02-16T11:37:21;17.50;;;10.00;;
54627;SDS011;40525;55.926;21.066;2024-02-16T11:39:54;19.70;;;11.80;;
54627;SDS011;40525;55.926;21.066;2024-02-16T11:42:22;14.90;;;8.90;;
54627;SDS011;40525;55.926;21.066;2024-02-16T11:44:50;17.80;;;10.70;;
54627;SDS011;40525;55.926;21.066;2024-02-16T11:47:21;18.70;;;10.60;;
54627;SDS011;40525;55.926;21.066;2024-02-16T11:50:08;17.50;;;9.30;;
54627;SDS011;40525;55.926;21.066;2024-02-16T11:52:40;16.30;;;9.60;;
54627;SDS011;40525;55.926;21.066;2024-02-16T11:55:08;13.70;;;8.40;;
54627;SDS011;40525;55.926;21.066;2024-02-16T11:57:36;15.80;;;7.80;;
54627;SDS011;40525;55.926;21.066;2024-02-16T12:00:05;18.40;;;9.80;;
54627;SDS011;40525;55.926;21.066;2024-02-16T12:02:38;15.90;;;8.60;;
54627;SDS011;40525;55.926;21.066;2024-02-16T12:05:06;14.00;;;9.30;;
54627;SDS011;40525;55.926;21.066;2024-02-16T12:07:37;16.60;;;9.50;;
54627;SDS011;40525;55.926;21.066;2024-02-16T12:10:07;14.30;;;8.20;;
54627;SDS011;40525;55.926;21.066;2024-02-16T12:12:36;14.70;;;8.80;;
54627;SDS011;40525;55.926;21.066;2024-02-16T12:15:04;12.10;;;7.50;;
54627;SDS011;40525;55.926;21.066;2024-02-16T12:17:33;13.90;;;8.80;;
54627;SDS011;40525;55.926;21.066;2024-02-16T12:20:00;16.40;;;9.00;;
54627;SDS011;40525;55.926;21.066;2024-02-16T12:22:29;12.80;;;7.60;;
54627;SDS011;40525;55.926;21.066;2024-02-16T12:24:57;17.10;;;8.90;;
54627;SDS011;40525;55.926;21.066;2024-02-16T12:27:29;11.40;;;8.00;;
54627;SDS011;40525;55.926;21.066;2024-02-16T12:29:56;12.60;;;7.40;;
54627;SDS011;40525;55.926;21.066;2024-02-16T12:32:23;12.20;;;6.70;;
54627;SDS011;40525;55.926;21.066;2024-02-16T12:34:50;13.90;;;9.00;;
54627;SDS011;40525;55.926;21.066;2024-02-16T12:37:17;11.30;;;6.60;;
54627;SDS011;40525;55.926;21.066;2024-02-16T12:39:44;12.80;;;7.80;;
54627;SDS011;40525;55.926;21.066;2024-02-16T12:42:12;12.70;;;7.90;;
54627;SDS011;40525;55.926;21.066;2024-02-16T12:44:41;13.20;;;8.10;;
54627;SDS011;40525;55.926;21.066;2024-02-16T12:47:08;9.90;;;6.60;;
54627;SDS011;40525;55.926;21.066;2024-02-16T12:49:36;11.60;;;6.50;;
54627;SDS011;40525;55.926;21.066;2024-02-16T12:52:03;12.80;;;7.20;;
54627;SDS011;40525;55.926;21.066;2024-02-16T12:54:30;10.70;;;6.80;;
54627;SDS011;40525;55.926;21.066;2024-02-16T12:57:00;13.00;;;8.00;;
54627;SDS011;40525;55.926;21.066;2024-02-16T12:59:27;13.00;;;7.70;;
54627;SDS011;40525;55.926;21.066;2024-02-16T13:01:54;14.40;;;8.60;;
54627;SDS011;40525;55.926;21.066;2024-02-16T13:04:21;14.70;;;8.00;;
54627;SDS011;40525;55.926;21.066;2024-02-16T13:06:49;13.80;;;7.90;;
54627;SDS011;40525;55.926;21.066;2024-02-16T13:09:19;14.20;;;7.60;;
54627;SDS011;40525;55.926;21.066;2024-02-16T13:11:47;13.00;;;8.00;;
54627;SDS011;40525;55.926;21.066;2024-02-16T13:14:21;15.40;;;9.60;;
54627;SDS011;40525;55.926;21.066;2024-02-16T13:16:48;13.50;;;8.30;;
54627;SDS011;40525;55.926;21.066;2024-02-16T13:19:15;16.10;;;8.20;;
54627;SDS011;40525;55.926;21.066;2024-02-16T13:21:45;12.00;;;7.10;;
54627;SDS011;40525;55.926;21.066;2024-02-16T13:24:13;10.90;;;7.40;;
54627;SDS011;40525;55.926;21.066;2024-02-16T13:26:40;12.10;;;6.50;;
54627;SDS011;40525;55.926;21.066;2024-02-16T13:29:07;12.90;;;7.20;;
54627;SDS011;40525;55.926;21.066;2024-02-16T13:31:34;12.10;;;7.70;;
54627;SDS011;40525;55.926;21.066;2024-02-16T13:34:01;11.80;;;6.80;;
54627;SDS011;40525;55.926;21.066;2024-02-16T13:36:29;8.60;;;5.70;;
54627;SDS011;40525;55.926;21.066;2024-02-16T13:38:56;7.80;;;5.60;;
54627;SDS011;40525;55.926;21.066;2024-02-16T13:41:24;11.20;;;6.20;;
54627;SDS011;40525;55.926;21.066;2024-02-16T13:43:51;10.40;;;5.70;;
54627;SDS011;40525;55.926;21.066;2024-02-16T13:46:18;11.80;;;6.50;;
54627;SDS011;40525;55.926;21.066;2024-02-16T13:48:45;8.90;;;5.30;;
54627;SDS011;40525;55.926;21.066;2024-02-16T13:51:13;10.00;;;6.00;;
54627;SDS011;40525;55.926;21.066;2024-02-16T13:53:40;8.60;;;5.40;;
54627;SDS011;40525;55.926;21.066;2024-02-16T13:56:07;8.60;;;5.70;;
54627;SDS011;40525;55.926;21.066;2024-02-16T13:58:35;7.70;;;4.50;;
54627;SDS011;40525;55.926;21.066;2024-02-16T14:01:03;11.50;;;6.00;;
54627;SDS011;40525;55.926;21.066;2024-02-16T14:03:31;6.20;;;4.50;;
54627;SDS011;40525;55.926;21.066;2024-02-16T14:06:00;9.20;;;4.80;;
54627;SDS011;40525;55.926;21.066;2024-02-16T14:08:28;11.00;;;5.30;;
54627;SDS011;40525;55.926;21.066;2024-02-16T14:10:57;9.10;;;5.60;;
54627;SDS011;40525;55.926;21.066;2024-02-16T14:13:24;8.90;;;5.30;;
54627;SDS011;40525;55.926;21.066;2024-02-16T14:15:52;11.10;;;6.40;;